sensor_id;sensor_type;location;lat;lon;timestamp;pressure;altitude;pressure_sealevel;temperature;humidity
75418;BME280;63997;52.112;5.420;2024-02-04T00:00:40;102393.63;;;9.80;100.00
75418;BME280;63997;52.112;5.420;2024-02-04T00:03:07;102392.03;;;9.79;100.00
75418;BME280;63997;52.112;5.420;2024-02-04T00:05:34;102398.41;;;9.78;100.00
75418;BME280;63997;52.112;5.420;2024-02-04T00:08:00;102401.88;;;9.79;100.00
75418;BME280;63997;52.112;5.420;2024-02-04T00:10:28;102402.94;;;9.78;100.00
75418;BME280;63997;52.112;5.420;2024-02-04T00:12:55;102398.41;;;9.78;100.00
75418;BME280;63997;52.112;5.420;2024-02-04T00:15:21;102408.25;;;9.78;100.00
75418;BME280;63997;52.112;5.420;2024-02-04T00:17:48;102398.69;;;9.77;100.00
75418;BME280;63997;52.112;5.420;2024-02-04T00:20:15;102394.69;;;9.79;100.00
75418;BME280;63997;52.112;5.420;2024-02-04T00:22:42;102381.69;;;9.78;100.00
75418;BME280;63997;52.112;5.420;2024-02-04T00:25:08;102388.31;;;9.80;100.00
75418;BME280;63997;52.112;5.420;2024-02-04T00:27:38;102394.97;;;9.78;100.00
75418;BME280;63997;52.112;5.420;2024-02-04T00:30:05;102394.69;;;9.79;100.00
75418;BME280;63997;52.112;5.420;2024-02-04T00:32:32;102393.63;;;9.80;100.00
75418;BME280;63997;52.112;5.420;2024-02-04T00:34:58;102397.84;;;9.81;100.00
75418;BME280;63997;52.112;5.420;2024-02-04T00:37:25;102391.50;;;9.83;100.00
75418;BME280;63997;52.112;5.420;2024-02-04T00:39:52;102396.81;;;9.83;100.00
75418;BME280;63997;52.112;5.420;2024-02-04T00:42:18;102395.47;;;9.80;100.00
75418;BME280;63997;52.112;5.420;2024-02-04T00:44:45;102390.16;;;9.80;100.00
75418;BME280;63997;52.112;5.420;2024-02-04T00:47:11;102392.03;;;9.79;100.00
75418;BME280;63997;52.112;5.420;2024-02-04T00:49:39;102387.78;;;9.78;100.00
75418;BME280;63997;52.112;5.420;2024-02-04T00:52:06;102388.88;;;9.77;100.00
75418;BME280;63997;52.112;5.420;2024-02-04T00:54:32;102384.63;;;9.76;100.00
75418;BME280;63997;52.112;5.420;2024-02-04T00:56:59;102381.16;;;9.76;100.00
75418;BME280;63997;52.112;5.420;2024-02-04T00:59:26;102379.84;;;9.73;100.00
75418;BME280;63997;52.112;5.420;2024-02-04T01:01:53;102380.91;;;9.72;100.00
75418;BME280;63997;52.112;5.420;2024-02-04T01:04:19;102370.28;;;9.72;100.00
75418;BME280;63997;52.112;5.420;2024-02-04T01:06:46;102375.59;;;9.72;100.00
75418;BME280;63997;52.112;5.420;2024-02-04T01:09:29;102374.81;;;9.72;100.00
75418;BME280;63997;52.112;5.420;2024-02-04T01:11:56;102374.53;;;9.73;100.00
75418;BME280;63997;52.112;5.420;2024-02-04T01:14:23;102374.81;;;9.72;100.00
75418;BME280;63997;52.112;5.420;2024-02-04T01:16:49;102376.69;;;9.71;100.00
75418;BME280;63997;52.112;5.420;2024-02-04T01:19:16;102377.72;;;9.70;100.00
75418;BME280;63997;52.112;5.420;2024-02-04T01:21:42;102361.78;;;9.70;100.00
75418;BME280;63997;52.112;5.420;2024-02-04T01:24:11;102354.34;;;9.72;100.00
75418;BME280;63997;52.112;5.420;2024-02-04T01:26:37;102355.44;;;9.71;100.00
75418;BME280;63997;52.112;5.420;2024-02-04T01:29:04;102358.34;;;9.70;100.00
75418;BME280;63997;52.112;5.420;2024-02-04T01:31:30;102366.06;;;9.71;100.00
75418;BME280;63997;52.112;5.420;2024-02-04T01:33:57;102365.28;;;9.71;100.00
75418;BME280;63997;52.112;5.420;2024-02-04T01:36:23;102367.38;;;9.69;100.00
75418;BME280;63997;52.112;5.420;2024-02-04T01:38:50;102370.31;;;9.67;100.00
75418;BME280;63997;52.112;5.420;2024-02-04T01:41:17;102362.63;;;9.66;100.00
75418;BME280;63997;52.112;5.420;2024-02-04T01:43:43;102376.19;;;9.64;100.00
75418;BME280;63997;52.112;5.420;2024-02-04T01:46:10;102380.97;;;9.62;100.00
75418;BME280;63997;52.112;5.420;2024-02-04T01:48:37;102375.16;;;9.60;100.00
75418;BME280;63997;52.112;5.420;2024-02-04T01:51:04;102364.53;;;9.60;100.00
75418;BME280;63997;52.112;5.420;2024-02-04T01:53:32;102370.88;;;9.59;100.00
75418;BME280;63997;52.112;5.420;2024-02-04T01:56:00;102367.44;;;9.59;100.00
75418;BME280;63997;52.112;5.420;2024-02-04T01:58:27;102366.94;;;9.57;100.00
75418;BME280;63997;52.112;5.420;2024-02-04T02:00:53;102377.03;;;9.54;100.00
75418;BME280;63997;52.112;5.420;2024-02-04T02:03:21;102377.03;;;9.54;100.00
75418;BME280;63997;52.112;5.420;2024-02-04T02:05:48;102376.50;;;9.52;100.00
75418;BME280;63997;52.112;5.420;2024-02-04T02:08:15;102373.84;;;9.52;100.00
75418;BME280;63997;52.112;5.420;2024-02-04T02:10:42;102377.56;;;9.51;100.00
75418;BME280;63997;52.112;5.420;2024-02-04T02:13:20;102381.59;;;9.49;100.00
75418;BME280;63997;52.112;5.420;2024-02-04T02:15:56;102385.81;;;9.50;100.00
75418;BME280;63997;52.112;5.420;2024-02-04T02:18:40;102390.34;;;9.49;100.00
75418;BME280;63997;52.112;5.420;2024-02-04T02:24:11;102381.59;;;9.44;100.00
75418;BME280;63997;52.112;5.420;2024-02-04T02:26:40;102374.72;;;9.43;100.00
75418;BME280;63997;52.112;5.420;2024-02-04T02:29:07;102349.19;;;9.42;100.00
75418;BME280;63997;52.112;5.420;2024-02-04T02:31:36;102353.50;;;9.38;100.00
75418;BME280;63997;52.112;5.420;2024-02-04T02:34:14;102350.88;;;9.33;100.00
75418;BME280;63997;52.112;5.420;2024-02-04T02:39:40;102360.16;;;9.30;100.00
75418;BME280;63997;52.112;5.420;2024-02-04T02:42:11;102355.63;;;9.31;100.00
75418;BME280;63997;52.112;5.420;2024-02-04T02:44:39;102358.28;;;9.31;100.00
75418;BME280;63997;52.112;5.420;2024-02-04T02:47:06;102356.69;;;9.30;100.00
75418;BME280;63997;52.112;5.420;2024-02-04T02:49:34;102355.63;;;9.31;100.00
75418;BME280;63997;52.112;5.420;2024-02-04T02:52:00;102360.94;;;9.31;100.00
75418;BME280;63997;52.112;5.420;2024-02-04T02:54:27;102366.25;;;9.31;100.00
75418;BME280;63997;52.112;5.420;2024-02-04T02:56:54;102366.53;;;9.29;100.00
75418;BME280;63997;52.112;5.420;2024-02-04T02:59:20;102363.88;;;9.29;100.00
75418;BME280;63997;52.112;5.420;2024-02-04T03:01:47;102363.88;;;9.29;100.00
75418;BME280;63997;52.112;5.420;2024-02-04T03:04:13;102362.00;;;9.30;100.00
75418;BME280;63997;52.112;5.420;2024-02-04T03:06:40;102354.06;;;9.30;100.00
75418;BME280;63997;52.112;5.420;2024-02-04T03:09:06;102352.47;;;9.28;100.00
75418;BME280;63997;52.112;5.420;2024-02-04T03:11:33;102359.63;;;9.28;100.00
75418;BME280;63997;52.112;5.420;2024-02-04T03:14:00;102358.56;;;9.29;100.00
75418;BME280;63997;52.112;5.420;2024-02-04T03:16:26;102355.13;;;9.28;100.00
75418;BME280;63997;52.112;5.420;2024-02-04T03:18:53;102362.00;;;9.30;100.00
75418;BME280;63997;52.112;5.420;2024-02-04T03:21:19;102357.78;;;9.28;100.00
75418;BME280;63997;52.112;5.420;2024-02-04T03:23:46;102366.81;;;9.27;100.00
75418;BME280;63997;52.112;5.420;2024-02-04T03:26:17;102357.50;;;9.25;100.00
75418;BME280;63997;52.112;5.420;2024-02-04T03:28:46;102359.66;;;9.23;100.00
75418;BME280;63997;52.112;5.420;2024-02-04T03:31:19;102364.97;;;9.23;100.00
75418;BME280;63997;52.112;5.420;2024-02-04T03:33:46;102359.94;;;9.21;100.00
75418;BME280;63997;52.112;5.420;2024-02-04T03:36:18;102354.09;;;9.19;100.00
75418;BME280;63997;52.112;5.420;2024-02-04T03:38:45;102352.50;;;9.18;100.00
75418;BME280;63997;52.112;5.420;2024-02-04T03:41:11;102358.38;;;9.15;100.00
75418;BME280;63997;52.112;5.420;2024-02-04T03:43:38;102355.97;;;9.14;100.00
75418;BME280;63997;52.112;5.420;2024-02-04T03:46:04;102359.69;;;9.13;100.00
75418;BME280;63997;52.112;5.420;2024-02-04T03:48:31;102355.72;;;9.10;100.00
75418;BME280;63997;52.112;5.420;2024-02-04T03:50:58;102358.63;;;9.09;100.00
75418;BME280;63997;52.112;5.420;2024-02-04T03:53:24;102356.25;;;9.07;100.00
75418;BME280;63997;52.112;5.420;2024-02-04T03:55:51;102369.81;;;9.06;100.00
75418;BME280;63997;52.112;5.420;2024-02-04T03:58:20;102374.84;;;9.02;100.00
75418;BME280;63997;52.112;5.420;2024-02-04T04:00:46;102373.28;;;9.01;100.00
75418;BME280;63997;52.112;5.420;2024-02-04T04:03:13;102369.81;;;9.00;100.00
75418;BME280;63997;52.112;5.420;2024-02-04T04:05:39;102371.69;;;9.00;100.00
75418;BME280;63997;52.112;5.420;2024-02-04T04:08:06;102373.81;;;8.98;100.00
75418;BME280;63997;52.112;5.420;2024-02-04T04:10:33;102369.56;;;8.97;100.00
75418;BME280;63997;52.112;5.420;2024-02-04T04:12:59;102363.22;;;8.98;100.00
75418;BME280;63997;52.112;5.420;2024-02-04T04:15:26;102362.66;;;8.96;100.00
75418;BME280;63997;52.112;5.420;2024-02-04T04:17:53;102353.91;;;8.95;100.00
75418;BME280;63997;52.112;5.420;2024-02-04T04:20:19;102348.88;;;8.94;100.00
75418;BME280;63997;52.112;5.420;2024-02-04T04:22:46;102337.22;;;8.95;100.00
75418;BME280;63997;52.112;5.420;2024-02-04T04:25:13;102343.81;;;8.97;100.00
75418;BME280;63997;52.112;5.420;2024-02-04T04:27:40;102345.44;;;8.98;100.00
75418;BME280;63997;52.112;5.420;2024-02-04T04:30:07;102346.47;;;8.97;100.00
75418;BME280;63997;52.112;5.420;2024-02-04T04:32:35;102343.81;;;8.97;100.00
75418;BME280;63997;52.112;5.420;2024-02-04T04:35:04;102345.69;;;8.97;100.00
75418;BME280;63997;52.112;5.420;2024-02-04T04:37:30;102341.72;;;8.94;100.00
75418;BME280;63997;52.112;5.420;2024-02-04T04:39:57;102347.03;;;8.94;100.00
75418;BME280;63997;52.112;5.420;2024-02-04T04:42:23;102345.44;;;8.93;100.00
75418;BME280;63997;52.112;5.420;2024-02-04T04:44:50;102342.50;;;8.95;100.00
75418;BME280;63997;52.112;5.420;2024-02-04T04:47:16;102345.97;;;8.95;100.00
75418;BME280;63997;52.112;5.420;2024-02-04T04:49:43;102330.31;;;8.94;100.00
75418;BME280;63997;52.112;5.420;2024-02-04T04:52:10;102326.31;;;8.91;100.00
75418;BME280;63997;52.112;5.420;2024-02-04T04:54:36;102322.88;;;8.91;100.00
75418;BME280;63997;52.112;5.420;2024-02-04T04:57:03;102320.78;;;8.88;100.00
75418;BME280;63997;52.112;5.420;2024-02-04T04:59:29;102317.06;;;8.89;100.00
75418;BME280;63997;52.112;5.420;2024-02-04T05:01:56;102314.41;;;8.89;100.00
75418;BME280;63997;52.112;5.420;2024-02-04T05:04:23;102305.13;;;8.86;100.00
75418;BME280;63997;52.112;5.420;2024-02-04T05:06:51;102306.72;;;8.87;100.00
75418;BME280;63997;52.112;5.420;2024-02-04T05:09:18;102303.28;;;8.87;100.00
75418;BME280;63997;52.112;5.420;2024-02-04T05:11:45;102308.59;;;8.87;100.00
75418;BME280;63997;52.112;5.420;2024-02-04T05:14:11;102308.84;;;8.85;100.00
75418;BME280;63997;52.112;5.420;2024-02-04T05:16:38;102309.91;;;8.84;100.00
75418;BME280;63997;52.112;5.420;2024-02-04T05:19:04;102307.53;;;8.83;100.00
75418;BME280;63997;52.112;5.420;2024-02-04T05:21:31;102311.25;;;8.82;100.00
75418;BME280;63997;52.112;5.420;2024-02-04T05:23:58;102310.47;;;8.81;100.00
75418;BME280;63997;52.112;5.420;2024-02-04T05:26:24;102320.81;;;8.83;100.00
75418;BME280;63997;52.112;5.420;2024-02-04T05:28:51;102320.81;;;8.83;100.00
75418;BME280;63997;52.112;5.420;2024-02-04T05:31:17;102311.25;;;8.82;100.00
75418;BME280;63997;52.112;5.420;2024-02-04T05:33:44;102314.94;;;8.81;100.00
75418;BME280;63997;52.112;5.420;2024-02-04T05:36:11;102304.34;;;8.81;100.00
75418;BME280;63997;52.112;5.420;2024-02-04T05:38:37;102305.16;;;8.81;100.00
75418;BME280;63997;52.112;5.420;2024-02-04T05:41:04;102307.53;;;8.83;100.00
75418;BME280;63997;52.112;5.420;2024-02-04T05:43:30;102291.63;;;8.83;100.00
75418;BME280;63997;52.112;5.420;2024-02-04T05:45:56;102293.22;;;8.84;100.00
75418;BME280;63997;52.112;5.420;2024-02-04T05:48:23;102278.34;;;8.83;100.00
75418;BME280;63997;52.112;5.420;2024-02-04T05:50:50;102282.88;;;8.82;100.00
75418;BME280;63997;52.112;5.420;2024-02-04T05:53:17;102291.63;;;8.83;100.00
75418;BME280;63997;52.112;5.420;2024-02-04T05:55:43;102293.72;;;8.81;100.00
75418;BME280;63997;52.112;5.420;2024-02-04T05:58:10;102296.38;;;8.81;100.00
75418;BME280;63997;52.112;5.420;2024-02-04T06:00:37;102299.84;;;8.81;100.00
75418;BME280;63997;52.112;5.420;2024-02-04T06:03:03;102299.84;;;8.81;100.00
75418;BME280;63997;52.112;5.420;2024-02-04T06:05:30;102283.13;;;8.81;100.00
75418;BME280;63997;52.112;5.420;2024-02-04T06:07:57;102281.53;;;8.80;100.00
75418;BME280;63997;52.112;5.420;2024-02-04T06:10:23;102270.94;;;8.80;100.00
75418;BME280;63997;52.112;5.420;2024-02-04T06:12:50;102264.03;;;8.79;100.00
75418;BME280;63997;52.112;5.420;2024-02-04T06:15:16;102267.47;;;8.79;100.00
75418;BME280;63997;52.112;5.420;2024-02-04T06:17:43;102264.03;;;8.79;100.00
75418;BME280;63997;52.112;5.420;2024-02-04T06:20:10;102271.22;;;8.78;100.00
75418;BME280;63997;52.112;5.420;2024-02-04T06:22:37;102255.28;;;8.78;100.00
75418;BME280;63997;52.112;5.420;2024-02-04T06:25:03;102265.63;;;8.80;100.00
75418;BME280;63997;52.112;5.420;2024-02-04T06:27:30;102256.38;;;8.77;100.00
75418;BME280;63997;52.112;5.420;2024-02-04T06:29:57;102257.94;;;8.78;100.00
75418;BME280;63997;52.112;5.420;2024-02-04T06:32:23;102249.72;;;8.80;100.00
75418;BME280;63997;52.112;5.420;2024-02-04T06:34:51;102245.97;;;8.81;100.00
75418;BME280;63997;52.112;5.420;2024-02-04T06:37:18;102250.25;;;8.82;100.00
75418;BME280;63997;52.112;5.420;2024-02-04T06:39:45;102246.53;;;8.83;100.00
75418;BME280;63997;52.112;5.420;2024-02-04T06:42:11;102237.78;;;8.82;100.00
75418;BME280;63997;52.112;5.420;2024-02-04T06:44:38;102255.00;;;8.85;100.00
75418;BME280;63997;52.112;5.420;2024-02-04T06:47:05;102249.41;;;8.86;100.00
75418;BME280;63997;52.112;5.420;2024-02-04T06:49:31;102238.78;;;8.91;100.00
75418;BME280;63997;52.112;5.420;2024-02-04T06:51:58;102235.09;;;8.92;100.00
75418;BME280;63997;52.112;5.420;2024-02-04T06:54:24;102242.75;;;8.94;100.00
75418;BME280;63997;52.112;5.420;2024-02-04T06:56:51;102245.13;;;8.95;100.00
75418;BME280;63997;52.112;5.420;2024-02-04T06:59:21;102244.84;;;8.97;100.00
75418;BME280;63997;52.112;5.420;2024-02-04T07:01:48;102256.78;;;8.99;100.00
75418;BME280;63997;52.112;5.420;2024-02-04T07:04:14;102248.56;;;9.01;100.00
75418;BME280;63997;52.112;5.420;2024-02-04T07:06:41;102246.16;;;9.05;100.00
75418;BME280;63997;52.112;5.420;2024-02-04T07:09:07;102248.53;;;9.06;100.00
75418;BME280;63997;52.112;5.420;2024-02-04T07:11:34;102241.88;;;9.09;100.00
75418;BME280;63997;52.112;5.420;2024-02-04T07:14:00;102236.31;;;9.10;100.00
75418;BME280;63997;52.112;5.420;2024-02-04T07:16:27;102232.06;;;9.09;100.00
75418;BME280;63997;52.112;5.420;2024-02-04T07:18:54;102228.34;;;9.10;100.00
75418;BME280;63997;52.112;5.420;2024-02-04T07:21:22;102232.59;;;9.11;100.00
75418;BME280;63997;52.112;5.420;2024-02-04T07:23:48;102240.53;;;9.11;100.00
75418;BME280;63997;52.112;5.420;2024-02-04T07:26:15;102234.66;;;9.14;100.00
75418;BME280;63997;52.112;5.420;2024-02-04T07:28:41;102223.00;;;9.15;100.00
75418;BME280;63997;52.112;5.420;2024-02-04T07:31:08;102228.53;;;9.19;100.00
75418;BME280;63997;52.112;5.420;2024-02-04T07:33:34;102235.19;;;9.21;100.00
75418;BME280;63997;52.112;5.420;2024-02-04T07:36:01;102227.72;;;9.23;100.00
75418;BME280;63997;52.112;5.420;2024-02-04T07:38:28;102220.28;;;9.25;100.00
75418;BME280;63997;52.112;5.420;2024-02-04T07:40:54;102235.66;;;9.28;100.00
75418;BME280;63997;52.112;5.420;2024-02-04T07:43:22;102238.81;;;9.31;100.00
75418;BME280;63997;52.112;5.420;2024-02-04T07:45:49;102240.44;;;9.32;100.00
75418;BME280;63997;52.112;5.420;2024-02-04T07:48:15;102240.66;;;9.35;100.00
75418;BME280;63997;52.112;5.420;2024-02-04T07:50:43;102244.63;;;9.38;100.00
75418;BME280;63997;52.112;5.420;2024-02-04T07:53:09;102249.16;;;9.37;100.00
75418;BME280;63997;52.112;5.420;2024-02-04T07:55:36;102244.06;;;9.41;100.00
75418;BME280;63997;52.112;5.420;2024-02-04T07:58:03;102250.97;;;9.42;100.00
75418;BME280;63997;52.112;5.420;2024-02-04T08:00:30;102236.34;;;9.44;100.00
75418;BME280;63997;52.112;5.420;2024-02-04T08:02:56;102233.69;;;9.44;100.00
75418;BME280;63997;52.112;5.420;2024-02-04T08:05:23;102234.78;;;9.43;100.00
75418;BME280;63997;52.112;5.420;2024-02-04T08:07:50;102239.28;;;9.43;100.00
75418;BME280;63997;52.112;5.420;2024-02-04T08:10:17;102240.88;;;9.44;100.00
75418;BME280;63997;52.112;5.420;2024-02-04T08:12:43;102240.59;;;9.45;100.00
75418;BME280;63997;52.112;5.420;2024-02-04T08:15:10;102237.66;;;9.47;100.00
75418;BME280;63997;52.112;5.420;2024-02-04T08:17:37;102229.69;;;9.47;100.00
75418;BME280;63997;52.112;5.420;2024-02-04T08:20:04;102231.25;;;9.48;100.00
75418;BME280;63997;52.112;5.420;2024-02-04T08:22:31;102239.22;;;9.48;100.00
75418;BME280;63997;52.112;5.420;2024-02-04T08:24:57;102232.09;;;9.48;100.00
75418;BME280;63997;52.112;5.420;2024-02-04T08:27:24;102222.75;;;9.51;100.00
75418;BME280;63997;52.112;5.420;2024-02-04T08:29:51;102227.00;;;9.52;100.00
75418;BME280;63997;52.112;5.420;2024-02-04T08:32:17;102217.94;;;9.53;100.00
75418;BME280;63997;52.112;5.420;2024-02-04T08:34:44;102227.78;;;9.52;100.00
75418;BME280;63997;52.112;5.420;2024-02-04T08:37:11;102225.13;;;9.52;100.00
75418;BME280;63997;52.112;5.420;2024-02-04T08:39:37;102225.91;;;9.53;100.00
75418;BME280;63997;52.112;5.420;2024-02-04T08:42:04;102222.75;;;9.51;100.00
75418;BME280;63997;52.112;5.420;2024-02-04T08:44:31;102219.03;;;9.52;100.00
75418;BME280;63997;52.112;5.420;2024-02-04T08:47:05;102219.81;;;9.52;100.00
75418;BME280;63997;52.112;5.420;2024-02-04T08:49:32;102210.78;;;9.53;100.00
75418;BME280;63997;52.112;5.420;2024-02-04T08:51:58;102220.34;;;9.54;100.00
75418;BME280;63997;52.112;5.420;2024-02-04T08:54:25;102213.97;;;9.56;100.00
75418;BME280;63997;52.112;5.420;2024-02-04T08:56:51;102204.91;;;9.57;100.00
75418;BME280;63997;52.112;5.420;2024-02-04T08:59:18;102209.16;;;9.58;100.00
75418;BME280;63997;52.112;5.420;2024-02-04T09:01:44;102212.59;;;9.58;100.00
75418;BME280;63997;52.112;5.420;2024-02-04T09:04:11;102208.63;;;9.61;100.00
75418;BME280;63997;52.112;5.420;2024-02-04T09:06:38;102197.69;;;9.62;100.00
75418;BME280;63997;52.112;5.420;2024-02-04T09:09:05;102202.72;;;9.64;100.00
75418;BME280;63997;52.112;5.420;2024-02-04T09:11:31;102193.44;;;9.66;100.00
75418;BME280;63997;52.112;5.420;2024-02-04T09:13:58;102195.25;;;9.71;100.00
75418;BME280;63997;52.112;5.420;2024-02-04T09:16:24;102195.47;;;9.74;100.00
75418;BME280;63997;52.112;5.420;2024-02-04T09:18:51;102197.03;;;9.75;100.00
75418;BME280;63997;52.112;5.420;2024-02-04T09:21:18;102199.66;;;9.80;100.00
75418;BME280;63997;52.112;5.420;2024-02-04T09:23:44;102199.13;;;9.84;100.00
75418;BME280;63997;52.112;5.420;2024-02-04T09:26:11;102211.31;;;9.85;100.00
75418;BME280;63997;52.112;5.420;2024-02-04T09:28:41;102210.25;;;9.86;100.00
75418;BME280;63997;52.112;5.420;2024-02-04T09:31:08;102215.00;;;9.89;100.00
75418;BME280;63997;52.112;5.420;2024-02-04T09:33:35;102218.16;;;9.91;100.00
75418;BME280;63997;52.112;5.420;2024-02-04T09:36:04;102211.78;;;9.92;100.00
75418;BME280;63997;52.112;5.420;2024-02-04T09:38:31;102209.38;;;9.95;100.00
75418;BME280;63997;52.112;5.420;2024-02-04T09:40:58;102228.22;;;9.99;100.00
75418;BME280;63997;52.112;5.420;2024-02-04T09:43:27;102214.84;;;10.04;100.00
75418;BME280;63997;52.112;5.420;2024-02-04T09:45:53;102208.47;;;10.05;100.00
75418;BME280;63997;52.112;5.420;2024-02-04T09:48:20;102206.31;;;10.07;100.00
75418;BME280;63997;52.112;5.420;2024-02-04T09:50:49;102206.81;;;10.09;100.00
75418;BME280;63997;52.112;5.420;2024-02-04T09:53:21;102211.09;;;10.10;100.00
75418;BME280;63997;52.112;5.420;2024-02-04T09:55:49;102206.28;;;10.12;100.00
75418;BME280;63997;52.112;5.420;2024-02-04T09:58:17;102200.38;;;10.15;100.00
75418;BME280;63997;52.112;5.420;2024-02-04T10:00:45;102207.00;;;10.18;100.00
75418;BME280;63997;52.112;5.420;2024-02-04T10:03:13;102210.47;;;10.18;100.00
75418;BME280;63997;52.112;5.420;2024-02-04T10:05:40;102215.47;;;10.20;100.00
75418;BME280;63997;52.112;5.420;2024-02-04T10:08:07;102209.09;;;10.21;100.00
75418;BME280;63997;52.112;5.420;2024-02-04T10:10:34;102214.16;;;10.22;100.00
75418;BME280;63997;52.112;5.420;2024-02-04T10:13:06;102219.19;;;10.24;100.00
75418;BME280;63997;52.112;5.420;2024-02-04T10:15:33;102213.34;;;10.27;100.00
75418;BME280;63997;52.112;5.420;2024-02-04T10:18:03;102212.50;;;10.26;100.00
75418;BME280;63997;52.112;5.420;2024-02-04T10:20:30;102215.16;;;10.26;100.00
75418;BME280;63997;52.112;5.420;2024-02-04T10:22:57;102214.63;;;10.29;100.00
75418;BME280;63997;52.112;5.420;2024-02-04T10:25:23;102206.09;;;10.32;100.00
75418;BME280;63997;52.112;5.420;2024-02-04T10:27:50;102210.34;;;10.33;100.00
75418;BME280;63997;52.112;5.420;2024-02-04T10:30:19;102212.41;;;10.37;100.00
75418;BME280;63997;52.112;5.420;2024-02-04T10:32:51;102211.31;;;10.38;100.00
75418;BME280;63997;52.112;5.420;2024-02-04T10:35:17;102217.97;;;10.40;100.00
75418;BME280;63997;52.112;5.420;2024-02-04T10:37:46;102215.00;;;10.42;100.00
75418;BME280;63997;52.112;5.420;2024-02-04T10:40:12;102215.00;;;10.42;100.00
75418;BME280;63997;52.112;5.420;2024-02-04T10:42:42;102211.81;;;10.45;100.00
75418;BME280;63997;52.112;5.420;2024-02-04T10:45:09;102213.09;;;10.47;100.00
75418;BME280;63997;52.112;5.420;2024-02-04T10:47:39;102219.19;;;10.48;100.00
75418;BME280;63997;52.112;5.420;2024-02-04T10:50:08;102216.25;;;10.49;100.00
75418;BME280;63997;52.112;5.420;2024-02-04T10:52:39;102222.09;;;10.51;100.00
75418;BME280;63997;52.112;5.420;2024-02-04T10:55:10;102213.81;;;10.53;100.00
75418;BME280;63997;52.112;5.420;2024-02-04T10:57:38;102215.41;;;10.54;100.00
75418;BME280;63997;52.112;5.420;2024-02-04T11:00:06;102215.91;;;10.56;100.00
75418;BME280;63997;52.112;5.420;2024-02-04T11:02:38;102211.09;;;10.58;100.00
75418;BME280;63997;52.112;5.420;2024-02-04T11:05:08;102218.00;;;10.59;100.00
75418;BME280;63997;52.112;5.420;2024-02-04T11:07:35;102219.88;;;10.58;100.00
75418;BME280;63997;52.112;5.420;2024-02-04T11:10:02;102215.63;;;10.57;100.00
75418;BME280;63997;52.112;5.420;2024-02-04T11:12:30;102221.25;;;10.56;100.00
75418;BME280;63997;52.112;5.420;2024-02-04T11:15:01;102221.25;;;10.56;100.00
75418;BME280;63997;52.112;5.420;2024-02-04T11:17:48;102215.91;;;10.56;100.00
75418;BME280;63997;52.112;5.420;2024-02-04T11:25:47;102214.97;;;10.47;100.00
75418;BME280;63997;52.112;5.420;2024-02-04T11:28:16;102218.41;;;10.47;100.00
75418;BME280;63997;52.112;5.420;2024-02-04T11:30:43;102208.59;;;10.43;100.00
75418;BME280;63997;52.112;5.420;2024-02-04T11:33:11;102205.94;;;10.43;100.00
75418;BME280;63997;52.112;5.420;2024-02-04T11:35:38;102202.78;;;10.41;100.00
75418;BME280;63997;52.112;5.420;2024-02-04T11:38:05;102191.06;;;10.42;100.00
75418;BME280;63997;52.112;5.420;2024-02-04T11:40:37;102185.47;;;10.43;100.00
75418;BME280;63997;52.112;5.420;2024-02-04T11:43:10;102177.50;;;10.43;100.00
75418;BME280;63997;52.112;5.420;2024-02-04T11:45:37;102167.66;;;10.44;100.00
75418;BME280;63997;52.112;5.420;2024-02-04T11:48:08;102175.34;;;10.45;100.00
75418;BME280;63997;52.112;5.420;2024-02-04T11:50:39;102176.63;;;10.48;100.00
75418;BME280;63997;52.112;5.420;2024-02-04T11:53:10;102171.31;;;10.48;100.00
75418;BME280;63997;52.112;5.420;2024-02-04T11:55:39;102177.22;;;10.45;100.00
75418;BME280;63997;52.112;5.420;2024-02-04T11:58:11;102177.78;;;10.42;100.00
75418;BME280;63997;52.112;5.420;2024-02-04T12:00:42;102173.03;;;10.39;100.00
75418;BME280;63997;52.112;5.420;2024-02-04T12:03:11;102171.44;;;10.38;100.00
75418;BME280;63997;52.112;5.420;2024-02-04T12:05:38;102157.88;;;10.39;100.00
75418;BME280;63997;52.112;5.420;2024-02-04T12:08:07;102167.72;;;10.39;100.00
75418;BME280;63997;52.112;5.420;2024-02-04T12:10:35;102164.78;;;10.40;100.00
75418;BME280;63997;52.112;5.420;2024-02-04T12:13:03;102147.72;;;10.41;100.00
75418;BME280;63997;52.112;5.420;2024-02-04T12:15:31;102159.44;;;10.40;100.00
75418;BME280;63997;52.112;5.420;2024-02-04T12:18:08;102141.34;;;10.42;100.00
75418;BME280;63997;52.112;5.420;2024-02-04T12:20:36;102145.56;;;10.43;100.00
75418;BME280;63997;52.112;5.420;2024-02-04T12:23:04;102145.31;;;10.45;100.00
75418;BME280;63997;52.112;5.420;2024-02-04T12:25:31;102138.13;;;10.45;100.00
75418;BME280;63997;52.112;5.420;2024-02-04T12:27:58;102140.00;;;10.45;100.00
75418;BME280;63997;52.112;5.420;2024-02-04T12:30:26;102148.16;;;10.48;100.00
75418;BME280;63997;52.112;5.420;2024-02-04T12:33:00;102146.53;;;10.52;100.00
75418;BME280;63997;52.112;5.420;2024-02-04T12:35:28;102138.97;;;10.59;100.00
75418;BME280;63997;52.112;5.420;2024-02-04T12:37:56;102139.50;;;10.62;100.00
75418;BME280;63997;52.112;5.420;2024-02-04T12:40:28;102143.22;;;10.60;100.00
75418;BME280;63997;52.112;5.420;2024-02-04T12:43:04;102150.41;;;10.60;100.00
75418;BME280;63997;52.112;5.420;2024-02-04T12:45:32;102151.50;;;10.59;100.00
75418;BME280;63997;52.112;5.420;2024-02-04T12:48:00;102149.13;;;10.57;100.00
75418;BME280;63997;52.112;5.420;2024-02-04T12:50:27;102148.91;;;10.54;100.00
75418;BME280;63997;52.112;5.420;2024-02-04T12:53:08;102145.97;;;10.55;100.00
75418;BME280;63997;52.112;5.420;2024-02-04T12:55:38;102143.56;;;10.54;100.00
75418;BME280;63997;52.112;5.420;2024-02-04T12:58:06;102133.53;;;10.51;100.00
75418;BME280;63997;52.112;5.420;2024-02-04T13:00:35;102129.00;;;10.51;100.00